createdAt,value
2023-05-04T00:00:50.543Z,18.71
2023-05-04T00:04:52.304Z,18.72
2023-05-04T00:08:50.633Z,18.60
2023-05-04T00:12:52.264Z,18.52
2023-05-04T00:16:49.609Z,18.44
2023-05-04T00:20:51.225Z,18.45
2023-05-04T00:24:49.621Z,18.33
2023-05-04T00:28:51.081Z,18.33
2023-05-04T00:32:49.851Z,18.38
2023-05-04T00:36:51.253Z,18.30
2023-05-04T00:40:49.589Z,18.22
2023-05-04T00:44:51.257Z,18.16
2023-05-04T00:48:49.633Z,17.96
2023-05-04T00:52:51.289Z,17.76
2023-05-04T00:56:50.848Z,17.64
2023-05-04T01:00:52.151Z,17.52
2023-05-04T01:04:50.873Z,17.33
2023-05-04T01:08:51.755Z,17.16
2023-05-04T01:12:46.810Z,17.01
2023-05-04T01:16:46.222Z,16.79
2023-05-04T01:20:44.366Z,16.59
2023-05-04T01:24:43.525Z,16.41
2023-05-04T01:28:42.978Z,16.26
2023-05-04T01:32:38.184Z,16.12
2023-05-04T01:36:37.676Z,16.01
2023-05-04T01:40:33.075Z,15.92
2023-05-04T01:44:32.371Z,15.81
2023-05-04T01:48:28.508Z,15.67
2023-05-04T01:52:28.017Z,15.54
2023-05-04T01:56:29.297Z,15.43
2023-05-04T02:00:24.927Z,15.30
2023-05-04T02:04:24.092Z,15.26
2023-05-04T02:08:20.171Z,15.16
2023-05-04T02:12:19.950Z,15.09
2023-05-04T02:16:14.908Z,14.93
2023-05-04T02:20:13.761Z,14.80
2023-05-04T02:24:11.184Z,14.78
2023-05-04T02:28:10.454Z,14.71
2023-05-04T02:32:06.017Z,14.42
2023-05-04T02:36:05.657Z,14.44
2023-05-04T02:40:01.052Z,14.19
2023-05-04T02:44:01.180Z,14.16
2023-05-04T02:47:57.271Z,14.11
2023-05-04T02:51:57.069Z,14.13
2023-05-04T02:55:52.012Z,14.10
2023-05-04T02:59:51.043Z,14.12
2023-05-04T03:03:50.347Z,14.12
2023-05-04T03:07:49.971Z,14.21
2023-05-04T03:11:51.646Z,14.34
2023-05-04T03:15:49.930Z,14.36
2023-05-04T03:19:51.547Z,14.59
2023-05-04T03:23:49.847Z,14.96
2023-05-04T03:27:51.353Z,15.27
2023-05-04T03:31:49.975Z,15.57
2023-05-04T03:35:52.088Z,15.85
2023-05-04T03:39:51.056Z,16.01
2023-05-04T03:43:52.763Z,16.19
2023-05-04T03:47:51.350Z,16.50
2023-05-04T03:51:53.899Z,16.46
2023-05-04T03:55:56.916Z,16.81
2023-05-04T03:59:57.836Z,17.28
2023-05-04T04:04:00.055Z,17.62
2023-05-04T04:07:58.362Z,17.80
2023-05-04T04:12:01.489Z,17.85
2023-05-04T04:16:00.198Z,17.98
2023-05-04T04:20:01.961Z,18.17
2023-05-04T04:24:00.077Z,18.27
2023-05-04T04:28:01.811Z,18.51
2023-05-04T04:31:59.994Z,18.72
2023-05-04T04:36:01.676Z,19.11
2023-05-04T04:40:00.164Z,19.48
2023-05-04T04:44:01.412Z,19.76
2023-05-04T04:47:59.217Z,20.04
2023-05-04T04:52:01.035Z,20.43
2023-05-04T04:55:59.066Z,20.72
2023-05-04T05:00:00.708Z,21.06
2023-05-04T05:03:59.351Z,21.42
2023-05-04T05:08:00.922Z,21.77
2023-05-04T05:11:58.626Z,22.23
2023-05-04T05:15:57.733Z,22.44
2023-05-04T05:19:55.451Z,22.61
2023-05-04T05:23:55.736Z,22.75
2023-05-04T05:27:52.395Z,23.01
2023-05-04T05:31:49.403Z,23.13
2023-05-04T05:35:49.638Z,23.40
2023-05-04T05:39:47.449Z,23.44
2023-05-04T05:43:47.655Z,23.66
2023-05-04T05:47:45.240Z,23.77
2023-05-04T05:51:44.706Z,24.05
2023-05-04T05:55:42.294Z,24.26
2023-05-04T05:59:41.874Z,24.62
2023-05-04T06:03:39.459Z,25.04
2023-05-04T06:07:39.990Z,25.32
2023-05-04T06:11:37.326Z,23.97
2023-05-04T06:15:36.853Z,24.39
2023-05-04T06:19:34.766Z,25.44
2023-05-04T06:23:35.044Z,25.78
2023-05-04T06:27:32.588Z,25.75
2023-05-04T06:31:32.382Z,25.94
2023-05-04T06:35:29.666Z,26.27
2023-05-04T06:39:29.840Z,26.23
2023-05-04T06:43:29.796Z,25.89
2023-05-04T06:47:27.303Z,25.82
2023-05-04T06:51:26.940Z,25.90
2023-05-04T06:55:24.480Z,26.24
2023-05-04T06:59:23.994Z,26.84
2023-05-04T07:03:21.720Z,26.99
2023-05-04T07:07:20.461Z,27.44
2023-05-04T07:11:21.376Z,27.62
2023-05-04T07:15:19.280Z,27.38
2023-05-04T07:19:20.908Z,27.43
2023-05-04T07:23:19.492Z,27.72
2023-05-04T07:27:20.920Z,28.08
2023-05-04T07:31:14.287Z,28.59
2023-05-04T07:35:11.445Z,28.88
2023-05-04T07:39:11.213Z,29.06
2023-05-04T07:43:10.799Z,29.07
2023-05-04T07:47:06.734Z,29.45
2023-05-04T07:51:06.330Z,29.76
2023-05-04T07:55:01.560Z,29.99
2023-05-04T07:58:58.570Z,30.16
2023-05-04T08:02:51.722Z,30.27
2023-05-04T08:06:54.737Z,30.02
2023-05-04T08:10:50.836Z,29.91
2023-05-04T08:14:50.373Z,30.23
2023-05-04T08:18:45.944Z,30.07
2023-05-04T08:22:45.107Z,29.93
2023-05-04T08:26:41.393Z,29.84
2023-05-04T08:30:39.672Z,30.01
2023-05-04T08:34:33.163Z,30.28
2023-05-04T08:38:09.174Z,30.51
2023-05-04T08:42:12.296Z,30.48
2023-05-04T08:46:07.752Z,30.39
2023-05-04T08:50:07.304Z,30.30
2023-05-04T08:54:02.776Z,30.00
2023-05-04T08:58:02.374Z,29.91
2023-05-04T09:01:55.664Z,29.98
2023-05-04T09:05:52.734Z,30.27
2023-05-04T09:09:52.249Z,30.65
2023-05-04T09:13:51.503Z,31.20
2023-05-04T09:17:57.094Z,31.83
2023-05-04T09:21:57.468Z,32.24
2023-05-04T09:25:52.922Z,32.52
2023-05-04T09:29:50.048Z,32.83
2023-05-04T09:33:50.457Z,32.49
2023-05-04T09:37:51.626Z,32.28
2023-05-04T09:41:48.438Z,32.07
2023-05-04T09:45:48.738Z,31.72
2023-05-04T09:49:45.375Z,31.38
2023-05-04T09:53:44.815Z,31.13
2023-05-04T09:57:42.145Z,30.94
2023-05-04T10:01:43.422Z,30.86
2023-05-04T10:05:42.623Z,30.75
2023-05-04T10:09:42.635Z,30.46
2023-05-04T10:13:39.604Z,30.18
2023-05-04T10:17:39.679Z,29.95
2023-05-04T10:21:36.961Z,29.93
2023-05-04T10:25:36.713Z,29.94
2023-05-04T10:29:33.401Z,30.22
2023-05-04T10:33:33.086Z,30.21
2023-05-04T10:37:30.956Z,30.15
2023-05-04T10:41:30.467Z,30.16
2023-05-04T10:45:27.972Z,30.39
2023-05-04T10:49:27.726Z,30.73
2023-05-04T10:53:27.994Z,30.86
2023-05-04T10:57:27.764Z,30.96
2023-05-04T11:01:25.134Z,31.09
2023-05-04T11:05:34.838Z,31.07
2023-05-04T11:09:33.870Z,30.35
2023-05-04T11:13:35.745Z,30.91
2023-05-04T11:17:33.734Z,30.61
2023-05-04T11:21:35.180Z,30.73
2023-05-04T11:25:33.732Z,31.08
2023-05-04T11:29:35.351Z,31.02
2023-05-04T11:33:34.948Z,30.64
2023-05-04T11:37:36.218Z,30.65
2023-05-04T11:41:34.807Z,31.17
2023-05-04T11:45:36.141Z,32.03
2023-05-04T11:49:33.866Z,32.43
2023-05-04T11:53:35.364Z,32.52
2023-05-04T11:57:33.844Z,32.45
2023-05-04T12:01:35.913Z,32.54
2023-05-04T12:05:33.843Z,32.10
2023-05-04T12:09:35.201Z,32.00
2023-05-04T12:13:33.886Z,32.40
2023-05-04T12:17:34.805Z,32.74
2023-05-04T12:21:32.833Z,32.74
2023-05-04T12:25:34.534Z,32.29
2023-05-04T12:29:35.896Z,31.92
2023-05-04T12:33:37.486Z,31.86
2023-05-04T12:37:35.965Z,31.96
2023-05-04T12:41:37.346Z,31.92
2023-05-04T12:45:36.164Z,32.34
2023-05-04T12:49:37.297Z,32.93
2023-05-04T12:53:35.928Z,33.49
2023-05-04T12:57:37.496Z,34.29
2023-05-04T13:01:34.973Z,35.05
2023-05-04T13:05:36.499Z,35.28
2023-05-04T13:09:34.178Z,35.47
2023-05-04T13:13:33.432Z,34.94
2023-05-04T13:17:31.354Z,34.31
2023-05-04T13:21:31.478Z,34.16
2023-05-04T13:25:29.447Z,34.53
2023-05-04T13:29:29.586Z,34.85
2023-05-04T13:33:29.844Z,35.49
2023-05-04T13:37:30.536Z,35.63
2023-05-04T13:41:28.238Z,35.49
2023-05-04T13:45:25.831Z,34.94
2023-05-04T13:49:14.905Z,33.89
2023-05-04T13:53:06.165Z,32.96
2023-05-04T13:57:01.976Z,32.30
2023-05-04T14:01:01.704Z,31.95
2023-05-04T14:04:59.325Z,31.79
2023-05-04T14:08:59.757Z,32.06
2023-05-04T14:12:57.156Z,32.85
2023-05-04T14:16:56.543Z,33.19
2023-05-04T14:20:54.438Z,32.79
2023-05-04T14:24:45.514Z,32.27
2023-05-04T14:28:40.577Z,32.24
2023-05-04T14:32:40.658Z,31.87
2023-05-04T14:38:17.650Z,31.57
2023-05-04T14:42:16.947Z,31.45
2023-05-04T14:46:14.892Z,31.11
2023-05-04T14:50:15.127Z,30.82
2023-05-04T14:54:12.719Z,30.59
2023-05-04T14:58:12.846Z,30.35
2023-05-04T15:02:09.886Z,30.19
2023-05-04T15:06:08.822Z,29.98
2023-05-04T15:10:10.282Z,30.06
2023-05-04T15:14:08.737Z,30.04
2023-05-04T15:18:10.311Z,29.97
2023-05-04T15:22:08.748Z,29.96
2023-05-04T15:26:10.158Z,29.88
2023-05-04T15:30:08.922Z,29.72
2023-05-04T15:34:10.885Z,29.40
2023-05-04T15:38:08.756Z,29.30
2023-05-04T15:42:10.123Z,29.04
2023-05-04T15:46:08.812Z,28.93
2023-05-04T15:50:10.545Z,28.69
2023-05-04T15:54:08.627Z,28.72
2023-05-04T15:58:10.265Z,28.67
2023-05-04T16:02:08.906Z,28.54
2023-05-04T16:06:10.206Z,28.55
2023-05-04T16:10:09.096Z,28.53
2023-05-04T16:14:10.640Z,28.46
2023-05-04T16:18:08.861Z,28.21
2023-05-04T16:22:10.391Z,28.05
2023-05-04T16:26:08.771Z,28.13
2023-05-04T16:30:10.579Z,28.09
2023-05-04T16:34:08.805Z,28.00
2023-05-04T16:38:10.276Z,27.67
2023-05-04T16:42:11.974Z,27.53
2023-05-04T16:46:09.854Z,27.28
2023-05-04T16:50:11.428Z,26.95
2023-05-04T16:54:09.804Z,26.98
2023-05-04T16:58:11.306Z,27.08
2023-05-04T17:02:09.895Z,27.06
2023-05-04T17:06:12.005Z,26.92
2023-05-04T17:10:07.244Z,26.70
2023-05-04T17:14:06.609Z,26.42
2023-05-04T17:18:02.229Z,26.14
2023-05-04T17:22:01.596Z,25.94
2023-05-04T17:25:56.722Z,25.87
2023-05-04T17:29:55.922Z,25.69
2023-05-04T17:33:51.024Z,25.49
2023-05-04T17:37:50.954Z,25.24
2023-05-04T17:41:46.077Z,25.07
2023-05-04T17:45:45.202Z,24.91
2023-05-04T17:49:41.078Z,23.83
2023-05-04T17:53:40.690Z,24.46
2023-05-04T17:57:36.026Z,24.33
2023-05-04T18:01:35.228Z,24.47
2023-05-04T18:05:31.166Z,24.46
2023-05-04T18:09:30.654Z,24.35
2023-05-04T18:13:26.101Z,24.27
2023-05-04T18:17:26.404Z,24.10
2023-05-04T18:21:22.054Z,24.16
2023-05-04T18:25:21.122Z,24.00
2023-05-04T18:29:19.495Z,23.91
2023-05-04T18:33:21.001Z,23.73
2023-05-04T18:37:16.423Z,23.57
2023-05-04T18:41:15.747Z,23.55
2023-05-04T18:45:11.389Z,23.67
2023-05-04T18:49:11.101Z,23.48
2023-05-04T18:53:06.479Z,23.44
2023-05-04T18:57:05.599Z,23.29
2023-05-04T19:01:01.202Z,23.27
2023-05-04T19:05:01.033Z,23.45
2023-05-04T19:09:02.754Z,23.14
2023-05-04T19:13:00.190Z,23.19
2023-05-04T19:17:01.490Z,23.21
2023-05-04T19:21:00.167Z,23.15
2023-05-04T19:25:00.969Z,23.06
2023-05-04T19:28:59.037Z,22.98
2023-05-04T19:33:00.667Z,22.91
2023-05-04T19:36:59.066Z,22.92
2023-05-04T19:41:00.680Z,22.84
2023-05-04T19:44:59.219Z,22.74
2023-05-04T19:49:00.010Z,22.59
2023-05-04T19:52:58.171Z,22.43
2023-05-04T19:56:59.555Z,22.06
2023-05-04T20:00:58.146Z,22.17
2023-05-04T20:04:59.746Z,22.20
2023-05-04T20:08:58.261Z,22.12
2023-05-04T20:12:59.601Z,22.21
2023-05-04T20:16:58.435Z,22.30
2023-05-04T20:21:00.116Z,22.29
2023-05-04T20:24:58.077Z,22.32
2023-05-04T20:28:59.776Z,22.20
2023-05-04T20:32:58.285Z,22.16
2023-05-04T20:36:59.603Z,22.14
2023-05-04T20:40:58.367Z,22.03
2023-05-04T20:45:00.129Z,21.99
2023-05-04T20:48:58.140Z,21.90
2023-05-04T20:52:59.668Z,21.96
2023-05-04T20:56:58.211Z,21.94
2023-05-04T21:00:59.839Z,21.77
2023-05-04T21:04:58.362Z,21.68
2023-05-04T21:08:59.703Z,21.55
2023-05-04T21:12:55.581Z,21.47
2023-05-04T21:16:55.060Z,21.54
2023-05-04T21:20:50.228Z,21.61
2023-05-04T21:24:49.407Z,21.40
2023-05-04T21:28:44.599Z,21.29
2023-05-04T21:32:44.416Z,21.21
2023-05-04T21:36:39.813Z,21.13
2023-05-04T21:40:38.891Z,21.09
2023-05-04T21:44:34.400Z,21.09
2023-05-04T21:48:35.720Z,21.19
2023-05-04T21:52:31.718Z,20.37
2023-05-04T21:56:31.007Z,20.53
2023-05-04T22:00:26.553Z,21.27
2023-05-04T22:04:25.685Z,21.47
2023-05-04T22:08:21.984Z,21.44
2023-05-04T22:12:21.316Z,21.47
2023-05-04T22:16:16.477Z,21.48
2023-05-04T22:20:16.826Z,21.41
2023-05-04T22:24:12.681Z,21.36
2023-05-04T22:28:12.284Z,21.17
2023-05-04T22:32:08.042Z,21.19
2023-05-04T22:36:07.199Z,21.11
2023-05-04T22:40:02.532Z,21.04
2023-05-04T22:44:01.479Z,21.06
2023-05-04T22:47:56.692Z,20.97
2023-05-04T22:51:56.480Z,21.01
2023-05-04T22:55:51.968Z,21.22
2023-05-04T22:59:51.181Z,21.09
2023-05-04T23:03:46.767Z,21.06
2023-05-04T23:07:46.341Z,21.10
2023-05-04T23:11:47.728Z,21.05
2023-05-04T23:15:46.555Z,20.97
2023-05-04T23:19:48.207Z,20.97
2023-05-04T23:23:46.489Z,20.92
2023-05-04T23:27:47.981Z,20.83
2023-05-04T23:31:46.608Z,20.63
2023-05-04T23:35:48.570Z,20.47
2023-05-04T23:39:46.370Z,20.39
2023-05-04T23:43:48.098Z,20.35
2023-05-04T23:47:46.469Z,20.28
2023-05-04T23:51:48.104Z,20.34
2023-05-04T23:55:46.467Z,20.31
2023-05-04T23:59:48.119Z,20.27
